Time;durP1;ratioP1;P1;durP2;ratioP2;P2;SDS_P1;SDS_P2;PMS_P1;PMS_P2;Temp;Humidity;BMP_temperature;BMP_pressure;BME280_temperature;BME280_humidity;BME280_pressure;Samples;Min_cycle;Max_cycle;Signal;HPM_P1;HPM_P2
2023/01/01 00:00:17;;;;;;;5.90;2.95;;;;;;;;;;4962131;28;20222;-82
2023/01/01 00:02:43;;;;;;;3.47;2.40;;;;;;;;;;4935771;29;20238;-85
2023/01/01 00:05:11;;;;;;;4.68;2.40;;;;;;;;;;4945506;28;20873;-84
2023/01/01 00:07:36;;;;;;;6.90;2.67;;;;;;;;;;4955682;28;20254;-82
2023/01/01 00:12:46;;;;;;;5.28;2.28;;;;;;;;;;4959645;28;20723;-82
2023/01/01 00:15:11;;;;;;;7.70;2.85;;;;;;;;;;4958341;28;20230;-82
2023/01/01 00:17:39;;;;;;;5.20;3.10;;;;;;;;;;4959333;28;20230;-81
2023/01/01 00:20:06;;;;;;;6.20;2.63;;;;;;;;;;4940591;28;20266;-81
2023/01/01 00:22:32;;;;;;;6.65;2.90;;;;;;;;;;4945270;28;20630;-83
2023/01/01 00:24:57;;;;;;;6.40;2.75;;;;;;;;;;4942686;28;20226;-82
2023/01/01 00:27:27;;;;;;;3.03;2.30;;;;;;;;;;4949944;28;20226;-82
2023/01/01 00:29:53;;;;;;;5.70;2.50;;;;;;;;;;4949014;28;20335;-80
2023/01/01 00:32:18;;;;;;;4.78;2.50;;;;;;;;;;4969460;28;20226;-79
2023/01/01 00:34:44;;;;;;;4.82;2.83;;;;;;;;;;4940886;28;20350;-81
2023/01/01 00:37:10;;;;;;;4.47;2.55;;;;;;;;;;4939984;28;20230;-80
2023/01/01 00:39:38;;;;;;;7.38;2.95;;;;;;;;;;4924266;28;20249;-82
2023/01/01 00:42:09;;;;;;;4.63;2.47;;;;;;;;;;4967189;28;20229;-80
2023/01/01 00:44:34;;;;;;;6.57;2.78;;;;;;;;;;4959972;28;20940;-80
2023/01/01 00:47:00;;;;;;;10.15;2.88;;;;;;;;;;4927049;28;20221;-80
2023/01/01 00:49:28;;;;;;;4.53;2.63;;;;;;;;;;4940410;28;20222;-82
2023/01/01 00:51:53;;;;;;;4.50;2.70;;;;;;;;;;4946881;28;20237;-82
2023/01/01 00:54:22;;;;;;;4.20;2.70;;;;;;;;;;4949399;28;20242;-80
2023/01/01 00:56:47;;;;;;;4.00;2.53;;;;;;;;;;4943927;28;20250;-82
2023/01/01 00:59:15;;;;;;;7.32;2.58;;;;;;;;;;4938795;28;20227;-80
2023/01/01 01:01:41;;;;;;;3.90;2.40;;;;;;;;;;4944986;28;20225;-80
2023/01/01 01:04:08;;;;;;;5.32;2.78;;;;;;;;;;4932118;28;20241;-81
2023/01/01 01:06:33;;;;;;;5.50;2.95;;;;;;;;;;4936921;28;20229;-82
2023/01/01 01:08:59;;;;;;;5.57;2.53;;;;;;;;;;4955742;28;20244;-83
2023/01/01 01:11:25;;;;;;;4.07;2.50;;;;;;;;;;4939757;28;20225;-81
2023/01/01 01:13:54;;;;;;;7.72;3.17;;;;;;;;;;4959198;28;20218;-82
2023/01/01 01:16:27;;;;;;;4.38;2.60;;;;;;;;;;4958308;28;20324;-79
2023/01/01 01:18:56;;;;;;;5.15;3.08;;;;;;;;;;4952790;28;20228;-80
2023/01/01 01:21:22;;;;;;;6.75;3.38;;;;;;;;;;4942073;28;20222;-80
2023/01/01 01:23:49;;;;;;;6.38;3.08;;;;;;;;;;4939857;28;20309;-81
2023/01/01 01:26:18;;;;;;;5.95;3.20;;;;;;;;;;4926291;28;20218;-80
2023/01/01 01:28:43;;;;;;;4.68;3.20;;;;;;;;;;4944495;28;20225;-87
2023/01/01 01:31:12;;;;;;;5.47;3.05;;;;;;;;;;4942455;28;20222;-85
2023/01/01 01:33:38;;;;;;;5.55;2.97;;;;;;;;;;4921061;28;21124;-85
2023/01/01 01:36:06;;;;;;;5.22;2.83;;;;;;;;;;4948249;28;20230;-84
2023/01/01 01:38:34;;;;;;;5.25;3.20;;;;;;;;;;4962953;28;20241;-84
2023/01/01 01:41:02;;;;;;;6.07;3.25;;;;;;;;;;4959732;28;20225;-85
2023/01/01 01:43:33;;;;;;;5.45;2.92;;;;;;;;;;4959278;28;20218;-84
2023/01/01 01:46:14;;;;;;;4.93;3.45;;;;;;;;;;4992267;28;20381;-86
2023/01/01 01:48:43;;;;;;;4.60;3.03;;;;;;;;;;4963052;28;20242;-88
2023/01/01 01:51:19;;;;;;;5.03;2.78;;;;;;;;;;4951035;28;20222;-87
2023/01/01 01:53:49;;;;;;;3.42;2.67;;;;;;;;;;4942466;28;20225;-85
2023/01/01 01:56:22;;;;;;;4.70;3.15;;;;;;;;;;4947371;28;20230;-87
2023/01/01 01:58:48;;;;;;;4.93;2.75;;;;;;;;;;4945586;28;20600;-85
2023/01/01 02:01:13;;;;;;;6.45;3.33;;;;;;;;;;4937427;28;20226;-88
2023/01/01 02:03:42;;;;;;;5.38;2.88;;;;;;;;;;4928760;28;20226;-86
2023/01/01 02:06:08;;;;;;;5.63;3.10;;;;;;;;;;4961181;28;20273;-84
2023/01/01 02:08:38;;;;;;;6.88;3.30;;;;;;;;;;4946163;28;20827;-86
2023/01/01 02:11:06;;;;;;;5.95;2.83;;;;;;;;;;4939787;28;20230;-87
2023/01/01 02:13:34;;;;;;;6.60;2.70;;;;;;;;;;4945399;28;20242;-86
2023/01/01 02:16:13;;;;;;;4.63;3.10;;;;;;;;;;4938390;28;20249;-86
2023/01/01 02:18:45;;;;;;;6.45;3.20;;;;;;;;;;4944509;28;20561;-87
2023/01/01 02:21:20;;;;;;;5.85;2.55;;;;;;;;;;4954477;28;20606;-87
2023/01/01 02:24:08;;;;;;;5.50;2.92;;;;;;;;;;4937731;28;20235;-84
2023/01/01 02:27:09;;;;;;;6.82;2.60;;;;;;;;;;4964490;28;20226;-87
2023/01/01 02:29:54;;;;;;;5.45;2.92;;;;;;;;;;4941015;29;20242;-86
2023/01/01 02:32:27;;;;;;;3.40;2.38;;;;;;;;;;4942291;28;20732;-86
2023/01/01 02:35:33;;;;;;;3.80;2.90;;;;;;;;;;4943706;28;20222;-85
2023/01/01 02:37:48;;;;;;;3.25;2.50;;;;;;;;;;4961173;28;20254;-88
2023/01/01 02:40:16;;;;;;;6.68;3.17;;;;;;;;;;4973100;28;20242;-87
2023/01/01 02:42:42;;;;;;;5.05;2.97;;;;;;;;;;4927550;28;20949;-86
2023/01/01 02:45:08;;;;;;;7.25;3.20;;;;;;;;;;4941426;28;20226;-87
2023/01/01 02:47:33;;;;;;;6.43;3.17;;;;;;;;;;4946480;28;20210;-87
2023/01/01 02:50:04;;;;;;;3.42;3.08;;;;;;;;;;4952611;28;20960;-86
2023/01/01 02:52:42;;;;;;;3.28;2.63;;;;;;;;;;4941056;28;20289;-86
2023/01/01 02:55:25;;;;;;;4.00;2.88;;;;;;;;;;4972247;28;20310;-85
2023/01/01 03:00:17;;;;;;;4.28;3.22;;;;;;;;;;4961979;28;20230;-88
2023/01/01 03:00:51;;;;;;;6.38;3.40;;;;;;;;;;4935818;28;20309;-85
2023/01/01 03:03:42;;;;;;;8.20;3.35;;;;;;;;;;4940701;28;20712;-85
2023/01/01 03:06:21;;;;;;;3.42;3.00;;;;;;;;;;4950117;28;20246;-85
2023/01/01 03:09:27;;;;;;;7.72;3.55;;;;;;;;;;4940385;28;20218;-86
2023/01/01 03:12:06;;;;;;;5.68;3.65;;;;;;;;;;4957927;28;20277;-86
2023/01/01 03:15:00;;;;;;;6.43;3.45;;;;;;;;;;4955025;28;20229;-86
2023/01/01 03:17:32;;;;;;;7.90;3.45;;;;;;;;;;4948614;28;20325;-86
2023/01/01 03:20:01;;;;;;;7.45;3.78;;;;;;;;;;4946954;28;20234;-85
2023/01/01 03:22:30;;;;;;;4.65;3.40;;;;;;;;;;4932997;28;20262;-84
2023/01/01 03:25:12;;;;;;;5.18;3.38;;;;;;;;;;4924242;28;20234;-87
2023/01/01 03:27:38;;;;;;;8.90;3.60;;;;;;;;;;4935340;29;20257;-85
2023/01/01 03:30:08;;;;;;;6.18;3.80;;;;;;;;;;4965627;28;20231;-84
2023/01/01 03:35:26;;;;;;;4.25;3.60;;;;;;;;;;4953148;28;20230;-86
2023/01/01 03:37:54;;;;;;;8.07;3.97;;;;;;;;;;4943938;28;20283;-87
2023/01/01 03:40:20;;;;;;;6.57;4.10;;;;;;;;;;4949179;28;20230;-85
2023/01/01 03:43:13;;;;;;;5.03;3.90;;;;;;;;;;4928558;28;20266;-84
2023/01/01 03:45:41;;;;;;;6.60;4.05;;;;;;;;;;4946583;28;20230;-88
2023/01/01 03:48:11;;;;;;;5.35;4.00;;;;;;;;;;4941886;28;20232;-85
2023/01/01 03:51:29;;;;;;;8.32;4.55;;;;;;;;;;4936216;29;20219;-87
2023/01/01 03:53:55;;;;;;;5.95;4.50;;;;;;;;;;4905472;28;20235;-82
2023/01/01 03:56:24;;;;;;;5.82;4.53;;;;;;;;;;4939571;28;20261;-83
2023/01/01 03:58:54;;;;;;;6.75;4.40;;;;;;;;;;4973043;28;20218;-84
2023/01/01 04:01:29;;;;;;;10.20;4.93;;;;;;;;;;4951741;28;20226;-84
2023/01/01 04:03:57;;;;;;;5.68;4.70;;;;;;;;;;4952054;29;20231;-84
2023/01/01 04:06:24;;;;;;;7.97;4.82;;;;;;;;;;4936675;28;20733;-84
2023/01/01 04:08:52;;;;;;;5.97;4.60;;;;;;;;;;4928306;29;20282;-85
2023/01/01 04:14:08;;;;;;;7.55;5.07;;;;;;;;;;4962589;28;20237;-85
2023/01/01 04:16:35;;;;;;;7.72;4.82;;;;;;;;;;4937546;29;20226;-85
2023/01/01 04:19:01;;;;;;;11.27;5.10;;;;;;;;;;4936045;28;20233;-83
2023/01/01 04:21:26;;;;;;;6.68;4.97;;;;;;;;;;4939526;28;20649;-84
2023/01/01 04:23:55;;;;;;;6.65;5.18;;;;;;;;;;4943318;28;20230;-84
2023/01/01 04:26:20;;;;;;;8.48;4.90;;;;;;;;;;4953803;28;20278;-86
2023/01/01 04:28:48;;;;;;;9.88;5.57;;;;;;;;;;4959314;28;20226;-85
2023/01/01 04:31:14;;;;;;;7.28;5.15;;;;;;;;;;4938851;28;20226;-85
2023/01/01 04:33:39;;;;;;;9.43;4.68;;;;;;;;;;4960289;28;20607;-87
2023/01/01 04:36:08;;;;;;;7.97;5.30;;;;;;;;;;4929069;28;20681;-84
2023/01/01 04:38:34;;;;;;;6.40;4.78;;;;;;;;;;4930101;28;20230;-84
2023/01/01 04:41:00;;;;;;;9.35;5.50;;;;;;;;;;4967906;28;20229;-85
2023/01/01 04:43:25;;;;;;;11.27;5.18;;;;;;;;;;4966399;28;20241;-85
2023/01/01 04:45:58;;;;;;;6.68;4.80;;;;;;;;;;4938645;29;20242;-86
2023/01/01 04:48:23;;;;;;;7.63;5.07;;;;;;;;;;4950662;28;20595;-85
2023/01/01 04:51:01;;;;;;;7.75;5.53;;;;;;;;;;4940316;28;20239;-87
2023/01/01 04:53:32;;;;;;;8.30;5.13;;;;;;;;;;4939387;28;20305;-86
2023/01/01 04:56:06;;;;;;;8.20;5.43;;;;;;;;;;4940917;28;20229;-87
2023/01/01 04:58:35;;;;;;;8.13;5.57;;;;;;;;;;4937266;28;20229;-85
2023/01/01 05:01:03;;;;;;;10.48;5.18;;;;;;;;;;4958282;28;20285;-87
2023/01/01 05:03:29;;;;;;;14.23;5.28;;;;;;;;;;4940619;28;20234;-86
2023/01/01 05:06:08;;;;;;;9.15;4.95;;;;;;;;;;4941894;28;20230;-86
2023/01/01 05:08:37;;;;;;;6.13;4.72;;;;;;;;;;4941571;28;20227;-85
2023/01/01 05:11:07;;;;;;;6.55;4.78;;;;;;;;;;4954825;28;20226;-84
2023/01/01 05:13:33;;;;;;;4.97;4.07;;;;;;;;;;4951467;28;20241;-85
2023/01/01 05:16:04;;;;;;;8.57;4.60;;;;;;;;;;4965307;28;20226;-85
2023/01/01 05:18:33;;;;;;;8.20;4.18;;;;;;;;;;4967084;28;20316;-85
2023/01/01 05:21:06;;;;;;;6.97;3.88;;;;;;;;;;4965602;28;20254;-83
2023/01/01 05:23:32;;;;;;;5.85;4.28;;;;;;;;;;4939548;28;20318;-85
2023/01/01 05:25:57;;;;;;;7.38;4.13;;;;;;;;;;4953477;28;20230;-87
2023/01/01 05:28:23;;;;;;;8.18;4.05;;;;;;;;;;4962591;28;20297;-84
2023/01/01 05:30:54;;;;;;;5.00;3.55;;;;;;;;;;4955202;28;20224;-86
2023/01/01 05:33:19;;;;;;;7.30;3.65;;;;;;;;;;4952784;28;20309;-85
2023/01/01 05:35:45;;;;;;;5.75;4.38;;;;;;;;;;4969438;28;20305;-86
2023/01/01 05:38:13;;;;;;;4.03;3.63;;;;;;;;;;4930115;28;20254;-85
2023/01/01 05:40:40;;;;;;;5.30;3.50;;;;;;;;;;4949987;28;20225;-86
2023/01/01 05:43:09;;;;;;;6.70;3.60;;;;;;;;;;4961141;28;20237;-85
2023/01/01 05:45:34;;;;;;;10.73;7.57;;;;;;;;;;4947273;28;20241;-87
2023/01/01 05:48:08;;;;;;;7.13;3.53;;;;;;;;;;4939122;28;20218;-84
2023/01/01 05:50:35;;;;;;;5.60;2.87;;;;;;;;;;4959261;28;20218;-85
2023/01/01 05:53:01;;;;;;;4.43;3.25;;;;;;;;;;4962056;28;20225;-84
2023/01/01 05:55:29;;;;;;;4.57;3.30;;;;;;;;;;4955048;28;20225;-84
2023/01/01 05:57:55;;;;;;;4.93;3.15;;;;;;;;;;4959176;28;20218;-85
2023/01/01 06:00:21;;;;;;;5.30;2.72;;;;;;;;;;4939200;28;20707;-87
2023/01/01 06:02:53;;;;;;;3.83;3.10;;;;;;;;;;4944280;28;20206;-86
2023/01/01 06:05:21;;;;;;;7.22;3.08;;;;;;;;;;4945948;28;20309;-86
2023/01/01 06:07:47;;;;;;;3.60;2.45;;;;;;;;;;4946184;28;20716;-88
2023/01/01 06:10:12;;;;;;;5.45;2.80;;;;;;;;;;4961585;28;20691;-87
2023/01/01 06:12:38;;;;;;;4.93;2.38;;;;;;;;;;4961857;28;20222;-85
2023/01/01 06:15:06;;;;;;;3.47;2.50;;;;;;;;;;4977137;28;20222;-85
2023/01/01 06:17:35;;;;;;;5.40;2.22;;;;;;;;;;4952444;28;20234;-86
2023/01/01 06:20:03;;;;;;;2.17;1.98;;;;;;;;;;4955329;28;20241;-86
2023/01/01 06:22:33;;;;;;;4.38;2.53;;;;;;;;;;4943010;28;20211;-86
2023/01/01 06:24:59;;;;;;;2.78;2.10;;;;;;;;;;4973379;28;20246;-84
2023/01/01 06:27:27;;;;;;;3.47;2.30;;;;;;;;;;4953170;28;20229;-87
2023/01/01 06:29:53;;;;;;;2.20;1.65;;;;;;;;;;4955855;28;20230;-86
2023/01/01 06:32:18;;;;;;;2.80;2.20;;;;;;;;;;4955158;28;20248;-84
2023/01/01 06:34:44;;;;;;;3.00;1.90;;;;;;;;;;4950720;29;20233;-84
2023/01/01 06:37:12;;;;;;;4.57;2.05;;;;;;;;;;4967162;28;20234;-86
2023/01/01 06:39:40;;;;;;;3.38;1.80;;;;;;;;;;4955796;29;20226;-85
2023/01/01 06:42:05;;;;;;;4.25;1.90;;;;;;;;;;4967858;28;20222;-84
2023/01/01 06:44:36;;;;;;;1.77;1.60;;;;;;;;;;4933396;29;20289;-83
2023/01/01 06:47:01;;;;;;;2.58;1.80;;;;;;;;;;4948994;28;20250;-85
2023/01/01 06:49:30;;;;;;;5.18;1.90;;;;;;;;;;4938017;28;20278;-84
2023/01/01 06:51:55;;;;;;;2.25;1.63;;;;;;;;;;4951894;28;20215;-86
2023/01/01 06:54:21;;;;;;;5.10;1.73;;;;;;;;;;4951330;28;20226;-86
2023/01/01 06:56:48;;;;;;;3.45;1.90;;;;;;;;;;4951795;28;20230;-86
2023/01/01 06:59:17;;;;;;;3.50;1.50;;;;;;;;;;4960897;28;20218;-85
2023/01/01 07:01:45;;;;;;;2.08;1.58;;;;;;;;;;4950889;29;20223;-86
2023/01/01 07:04:14;;;;;;;3.33;1.40;;;;;;;;;;4947938;28;20230;-83
2023/01/01 07:06:40;;;;;;;1.85;1.35;;;;;;;;;;4946129;29;20231;-85
2023/01/01 07:09:05;;;;;;;2.95;1.30;;;;;;;;;;4949108;28;20230;-87
2023/01/01 07:11:31;;;;;;;1.92;1.23;;;;;;;;;;4962734;28;20301;-85
2023/01/01 07:13:59;;;;;;;3.08;1.55;;;;;;;;;;4942287;28;20224;-86
2023/01/01 07:16:29;;;;;;;4.00;1.50;;;;;;;;;;4930928;28;20240;-84
2023/01/01 07:18:56;;;;;;;3.08;1.38;;;;;;;;;;4949716;28;20250;-85
2023/01/01 07:21:24;;;;;;;2.30;1.33;;;;;;;;;;4945765;28;20219;-85
2023/01/01 07:24:00;;;;;;;1.98;1.30;;;;;;;;;;4967937;28;20257;-85
2023/01/01 07:26:28;;;;;;;2.28;1.20;;;;;;;;;;4962271;28;20229;-85
2023/01/01 07:28:54;;;;;;;3.03;1.23;;;;;;;;;;4967088;28;20257;-86
2023/01/01 07:31:19;;;;;;;3.13;1.70;;;;;;;;;;4954625;28;20322;-86
2023/01/01 07:33:45;;;;;;;6.47;1.50;;;;;;;;;;4954243;28;20221;-86
2023/01/01 07:36:11;;;;;;;4.43;1.50;;;;;;;;;;4969712;28;20246;-84
2023/01/01 07:38:36;;;;;;;3.15;1.15;;;;;;;;;;4935462;28;20701;-86
2023/01/01 07:41:05;;;;;;;2.95;1.50;;;;;;;;;;4940427;28;20218;-83
2023/01/01 07:43:33;;;;;;;2.45;1.20;;;;;;;;;;4954803;28;20222;-84
2023/01/01 07:45:58;;;;;;;1.58;0.95;;;;;;;;;;4952513;28;20226;-84
2023/01/01 07:48:26;;;;;;;2.05;1.35;;;;;;;;;;4949762;28;20214;-86
2023/01/01 07:50:51;;;;;;;4.63;1.60;;;;;;;;;;4962967;28;20226;-84
2023/01/01 07:53:17;;;;;;;3.75;1.48;;;;;;;;;;4953221;28;20198;-83
2023/01/01 07:55:45;;;;;;;1.58;1.10;;;;;;;;;;4950621;28;20223;-84
2023/01/01 07:58:13;;;;;;;3.60;1.10;;;;;;;;;;4942884;28;20273;-83
2023/01/01 08:00:44;;;;;;;1.48;1.27;;;;;;;;;;4939548;28;20696;-83
2023/01/01 08:03:13;;;;;;;2.92;1.55;;;;;;;;;;4954781;28;20238;-84
2023/01/01 08:05:38;;;;;;;1.40;1.10;;;;;;;;;;4957463;28;20269;-85
2023/01/01 08:08:04;;;;;;;2.90;1.35;;;;;;;;;;4950111;28;20709;-87
2023/01/01 08:10:30;;;;;;;2.45;1.13;;;;;;;;;;4941955;29;20726;-84
2023/01/01 08:13:05;;;;;;;3.63;1.60;;;;;;;;;;4948382;28;20233;-85
2023/01/01 08:15:35;;;;;;;2.35;1.42;;;;;;;;;;4955779;28;20309;-85
2023/01/01 08:18:02;;;;;;;2.55;1.50;;;;;;;;;;4930082;28;20289;-86
2023/01/01 08:20:30;;;;;;;2.20;1.58;;;;;;;;;;4942533;28;21266;-85
2023/01/01 08:22:56;;;;;;;4.90;1.70;;;;;;;;;;4949002;28;20238;-86
2023/01/01 08:25:23;;;;;;;2.30;1.02;;;;;;;;;;4956937;28;20249;-87
2023/01/01 08:27:49;;;;;;;1.40;0.90;;;;;;;;;;4941615;28;20222;-84
2023/01/01 08:30:15;;;;;;;2.60;1.10;;;;;;;;;;4941223;28;20232;-83
2023/01/01 08:32:40;;;;;;;2.17;1.17;;;;;;;;;;4946186;28;20246;-85
2023/01/01 08:35:06;;;;;;;1.90;1.20;;;;;;;;;;4923338;28;20230;-86
2023/01/01 08:37:34;;;;;;;2.70;1.40;;;;;;;;;;4959333;28;20288;-84
2023/01/01 08:40:02;;;;;;;2.85;1.20;;;;;;;;;;4940169;28;20222;-86
2023/01/01 08:42:27;;;;;;;2.28;1.35;;;;;;;;;;4963945;28;20251;-85
2023/01/01 08:44:53;;;;;;;3.03;1.48;;;;;;;;;;4944613;29;20693;-86
2023/01/01 08:47:23;;;;;;;3.90;1.60;;;;;;;;;;4936381;28;20231;-86
2023/01/01 08:49:48;;;;;;;2.40;1.13;;;;;;;;;;4929557;29;20693;-84
2023/01/01 08:52:14;;;;;;;2.25;1.20;;;;;;;;;;4932759;28;20269;-84
2023/01/01 08:54:44;;;;;;;3.15;1.17;;;;;;;;;;4919541;28;20237;-83
2023/01/01 08:57:12;;;;;;;4.25;1.40;;;;;;;;;;4931018;28;20225;-85
2023/01/01 08:59:38;;;;;;;3.60;1.13;;;;;;;;;;4924603;29;20223;-86
2023/01/01 09:02:06;;;;;;;2.83;1.40;;;;;;;;;;4909161;28;20222;-85
2023/01/01 09:04:34;;;;;;;3.63;1.40;;;;;;;;;;4916761;29;20226;-85
2023/01/01 09:06:59;;;;;;;3.42;1.40;;;;;;;;;;4919108;28;20304;-87
2023/01/01 09:09:25;;;;;;;3.92;1.48;;;;;;;;;;4909844;28;20261;-86
2023/01/01 09:11:54;;;;;;;2.72;1.35;;;;;;;;;;4944960;28;20214;-86
2023/01/01 09:14:21;;;;;;;2.53;1.27;;;;;;;;;;4945930;28;20210;-86
2023/01/01 09:16:47;;;;;;;2.15;1.20;;;;;;;;;;4921384;28;20233;-86
2023/01/01 09:19:13;;;;;;;2.15;1.05;;;;;;;;;;4908848;29;20230;-85
2023/01/01 09:21:39;;;;;;;3.80;1.30;;;;;;;;;;4936867;29;20282;-87
2023/01/01 09:24:04;;;;;;;2.73;1.40;;;;;;;;;;4930672;28;20321;-84
2023/01/01 09:26:31;;;;;;;3.38;1.27;;;;;;;;;;4946546;29;20231;-84
2023/01/01 09:28:59;;;;;;;2.60;1.55;;;;;;;;;;4970594;28;20269;-86
2023/01/01 09:31:24;;;;;;;3.05;1.33;;;;;;;;;;4911302;29;20223;-85
2023/01/01 09:33:57;;;;;;;2.42;1.17;;;;;;;;;;4919585;28;20214;-84
2023/01/01 09:36:22;;;;;;;4.40;1.55;;;;;;;;;;4921250;28;20257;-87
2023/01/01 09:38:53;;;;;;;3.55;1.20;;;;;;;;;;4942038;28;20222;-85
2023/01/01 09:41:42;;;;;;;2.50;1.33;;;;;;;;;;4920398;28;20248;-85
2023/01/01 09:44:28;;;;;;;4.53;1.30;;;;;;;;;;4965120;28;20225;-85
2023/01/01 09:46:56;;;;;;;2.53;1.10;;;;;;;;;;4962034;28;20237;-84
2023/01/01 09:49:39;;;;;;;2.88;1.48;;;;;;;;;;4934544;28;20218;-85
2023/01/01 09:52:11;;;;;;;1.58;1.15;;;;;;;;;;4953050;28;20269;-87
2023/01/01 09:54:41;;;;;;;1.23;1.05;;;;;;;;;;4948835;28;20744;-86
2023/01/01 09:57:10;;;;;;;4.32;1.35;;;;;;;;;;4923942;28;20253;-87
2023/01/01 09:59:45;;;;;;;2.42;1.25;;;;;;;;;;4915540;28;20241;-85
2023/01/01 10:02:39;;;;;;;2.15;1.08;;;;;;;;;;4939509;28;20237;-87
2023/01/01 10:05:31;;;;;;;4.00;1.60;;;;;;;;;;4927094;28;20238;-84
2023/01/01 10:08:01;;;;;;;2.47;0.90;;;;;;;;;;4957538;28;20245;-86
2023/01/01 10:10:55;;;;;;;4.30;0.93;;;;;;;;;;4922545;28;20218;-86
2023/01/01 10:13:26;;;;;;;2.83;1.27;;;;;;;;;;4924403;28;20238;-85
2023/01/01 10:15:57;;;;;;;3.78;1.05;;;;;;;;;;4939334;28;20214;-88
2023/01/01 10:18:26;;;;;;;2.30;1.23;;;;;;;;;;4906493;28;20233;-87
2023/01/01 10:21:06;;;;;;;1.67;1.00;;;;;;;;;;4908414;28;20218;-86
2023/01/01 10:23:43;;;;;;;4.07;1.20;;;;;;;;;;4943341;28;21200;-83
2023/01/01 10:26:14;;;;;;;1.43;1.10;;;;;;;;;;4926585;28;20237;-85
2023/01/01 10:28:48;;;;;;;3.72;1.05;;;;;;;;;;4922315;28;20210;-86
2023/01/01 10:31:33;;;;;;;2.63;1.50;;;;;;;;;;4951987;28;20241;-84
2023/01/01 10:34:27;;;;;;;1.77;0.83;;;;;;;;;;4942250;28;20217;-84
2023/01/01 10:36:57;;;;;;;2.20;0.90;;;;;;;;;;4930836;28;20226;-87
2023/01/01 10:39:25;;;;;;;2.20;1.17;;;;;;;;;;4913310;28;20222;-86
2023/01/01 10:41:53;;;;;;;3.72;1.00;;;;;;;;;;4908754;28;20210;-86
2023/01/01 10:44:38;;;;;;;2.00;1.33;;;;;;;;;;4937473;28;20222;-84
2023/01/01 10:47:26;;;;;;;2.80;1.40;;;;;;;;;;4939142;28;20219;-82
2023/01/01 10:50:06;;;;;;;2.25;1.25;;;;;;;;;;4935526;28;20260;-87
2023/01/01 10:52:36;;;;;;;2.00;1.17;;;;;;;;;;4939399;28;20226;-85
2023/01/01 10:55:14;;;;;;;3.13;1.53;;;;;;;;;;4919861;28;20206;-86
2023/01/01 10:57:39;;;;;;;1.73;1.35;;;;;;;;;;4937582;28;20221;-85
2023/01/01 11:00:17;;;;;;;2.55;1.30;;;;;;;;;;4937279;28;20201;-83
2023/01/01 11:02:43;;;;;;;4.13;1.30;;;;;;;;;;4987285;28;20225;-84
2023/01/01 11:05:19;;;;;;;3.97;1.07;;;;;;;;;;4953433;28;20632;-84
2023/01/01 11:07:45;;;;;;;1.97;1.00;;;;;;;;;;4976713;28;20225;-82
2023/01/01 11:10:16;;;;;;;2.80;1.10;;;;;;;;;;4943704;28;20241;-86
2023/01/01 11:12:42;;;;;;;2.50;1.20;;;;;;;;;;4961924;28;20268;-86
2023/01/01 11:15:22;;;;;;;1.87;1.10;;;;;;;;;;4966699;28;20230;-84
2023/01/01 11:17:47;;;;;;;2.90;1.30;;;;;;;;;;4958154;28;20593;-83
2023/01/01 11:20:18;;;;;;;2.27;1.20;;;;;;;;;;4948688;28;20278;-83
2023/01/01 11:22:51;;;;;;;1.37;1.03;;;;;;;;;;4946471;28;20222;-82
2023/01/01 11:25:37;;;;;;;2.42;1.77;;;;;;;;;;4944723;28;20253;-82
2023/01/01 11:28:15;;;;;;;1.53;1.10;;;;;;;;;;4975579;28;20226;-84
2023/01/01 11:31:16;;;;;;;1.60;1.50;;;;;;;;;;4972813;28;20281;-87
2023/01/01 11:33:44;;;;;;;1.63;1.20;;;;;;;;;;4957313;28;20234;-87
2023/01/01 11:36:10;;;;;;;2.47;1.30;;;;;;;;;;4947348;28;20591;-86
2023/01/01 11:38:35;;;;;;;2.20;1.20;;;;;;;;;;4958693;28;20235;-87
2023/01/01 11:41:03;;;;;;;1.43;1.03;;;;;;;;;;4925638;28;20236;-87
2023/01/01 11:43:45;;;;;;;3.43;1.00;;;;;;;;;;4935673;28;20246;-86
2023/01/01 11:46:15;;;;;;;1.57;1.00;;;;;;;;;;4950953;28;20218;-86
2023/01/01 11:48:42;;;;;;;3.07;0.90;;;;;;;;;;4931237;28;20228;-87
2023/01/01 11:51:26;;;;;;;2.27;0.97;;;;;;;;;;4922569;28;20222;-86
2023/01/01 11:53:51;;;;;;;3.67;0.90;;;;;;;;;;4951961;28;20214;-86
2023/01/01 11:56:19;;;;;;;2.93;1.00;;;;;;;;;;4942289;28;20202;-84
2023/01/01 11:59:03;;;;;;;2.40;1.00;;;;;;;;;;4957097;28;20258;-86
2023/01/01 12:01:36;;;;;;;2.73;1.10;;;;;;;;;;4931287;28;20214;-85
2023/01/01 12:04:22;;;;;;;4.90;1.02;;;;;;;;;;4962908;28;20262;-87
2023/01/01 12:07:10;;;;;;;3.03;1.03;;;;;;;;;;4951821;28;20248;-85
2023/01/01 12:09:56;;;;;;;2.00;1.17;;;;;;;;;;4937576;28;20223;-86
2023/01/01 12:12:41;;;;;;;2.47;0.90;;;;;;;;;;4958043;28;20229;-86
2023/01/01 12:15:21;;;;;;;2.83;1.20;;;;;;;;;;4969778;28;20229;-85
2023/01/01 12:17:53;;;;;;;2.93;1.00;;;;;;;;;;4976865;28;20297;-85
2023/01/01 12:20:25;;;;;;;4.63;1.30;;;;;;;;;;4960425;28;20226;-84
2023/01/01 12:22:58;;;;;;;2.40;1.07;;;;;;;;;;4955084;28;20293;-85
2023/01/01 12:25:30;;;;;;;2.53;1.20;;;;;;;;;;4955294;28;20226;-83
2023/01/01 12:28:04;;;;;;;2.30;0.97;;;;;;;;;;4951226;28;20230;-83
2023/01/01 12:30:48;;;;;;;4.30;1.17;;;;;;;;;;4973620;28;20218;-80
2023/01/01 12:33:32;;;;;;;1.43;0.70;;;;;;;;;;4981859;28;20237;-83
2023/01/01 12:36:18;;;;;;;3.17;1.10;;;;;;;;;;4976141;28;20244;-86
2023/01/01 12:39:01;;;;;;;3.03;1.10;;;;;;;;;;4959047;28;20234;-85
2023/01/01 12:41:38;;;;;;;3.23;1.30;;;;;;;;;;4981402;28;20233;-85
2023/01/01 12:44:44;;;;;;;3.83;1.30;;;;;;;;;;4966239;28;20230;-86
2023/01/01 12:47:21;;;;;;;3.60;1.17;;;;;;;;;;4947321;28;20221;-83
2023/01/01 12:50:14;;;;;;;1.60;1.10;;;;;;;;;;4964300;28;20276;-86
2023/01/01 12:52:58;;;;;;;1.37;1.00;;;;;;;;;;4944291;28;20222;-86
2023/01/01 12:55:57;;;;;;;1.57;1.20;;;;;;;;;;4932535;28;20261;-85
2023/01/01 12:58:49;;;;;;;6.00;1.20;;;;;;;;;;4953804;28;20229;-88
2023/01/01 13:01:25;;;;;;;1.57;0.90;;;;;;;;;;4932023;28;20226;-86
2023/01/01 13:03:50;;;;;;;2.43;1.27;;;;;;;;;;4947687;28;20322;-86
2023/01/01 13:06:18;;;;;;;2.33;1.30;;;;;;;;;;4966911;28;20297;-84
2023/01/01 13:08:43;;;;;;;1.57;1.27;;;;;;;;;;4946377;28;20294;-85
2023/01/01 13:11:09;;;;;;;3.10;1.50;;;;;;;;;;4946070;28;20300;-86
2023/01/01 13:13:34;;;;;;;1.30;1.20;;;;;;;;;;4940831;28;20491;-84
2023/01/01 13:16:00;;;;;;;1.43;1.10;;;;;;;;;;4921577;28;20230;-84
2023/01/01 13:18:34;;;;;;;3.37;1.27;;;;;;;;;;4960618;28;20537;-84
2023/01/01 13:21:03;;;;;;;3.63;1.03;;;;;;;;;;4946131;28;20230;-82
2023/01/01 13:23:33;;;;;;;1.67;1.20;;;;;;;;;;4976735;28;20215;-84
2023/01/01 13:26:17;;;;;;;2.10;1.40;;;;;;;;;;4994868;28;20277;-83
2023/01/01 13:28:58;;;;;;;4.00;1.20;;;;;;;;;;4979158;28;20241;-84
2023/01/01 13:32:00;;;;;;;3.53;1.40;;;;;;;;;;4979861;28;20221;-84
2023/01/01 13:34:34;;;;;;;1.90;1.50;;;;;;;;;;4970924;28;20297;-85
2023/01/01 13:37:09;;;;;;;2.00;1.70;;;;;;;;;;4976908;28;20225;-84
2023/01/01 13:40:03;;;;;;;4.33;2.23;;;;;;;;;;4959793;28;20248;-84
2023/01/01 13:42:55;;;;;;;5.43;2.00;;;;;;;;;;4963505;28;20237;-85
2023/01/01 13:45:37;;;;;;;4.27;1.47;;;;;;;;;;4966887;28;20233;-85
2023/01/01 13:48:14;;;;;;;4.17;1.40;;;;;;;;;;4980421;28;20209;-84
2023/01/01 13:50:55;;;;;;;2.73;1.40;;;;;;;;;;4971438;28;20245;-84
2023/01/01 13:53:35;;;;;;;4.40;1.50;;;;;;;;;;4971540;28;20611;-84
2023/01/01 13:56:28;;;;;;;3.13;1.77;;;;;;;;;;4970606;28;20218;-84
2023/01/01 13:59:25;;;;;;;5.03;1.53;;;;;;;;;;4951978;28;20269;-84
2023/01/01 14:02:17;;;;;;;3.50;1.47;;;;;;;;;;4969341;28;20349;-85
2023/01/01 14:04:51;;;;;;;4.23;1.30;;;;;;;;;;4952779;28;20252;-85
2023/01/01 14:07:20;;;;;;;3.53;1.50;;;;;;;;;;4966606;28;20284;-83
2023/01/01 14:09:46;;;;;;;3.53;1.57;;;;;;;;;;4967358;28;20329;-84
2023/01/01 14:12:19;;;;;;;6.77;1.67;;;;;;;;;;4937701;28;20261;-85
2023/01/01 14:14:49;;;;;;;9.30;4.73;;;;;;;;;;4949905;28;20264;-84
2023/01/01 14:17:17;;;;;;;4.03;2.00;;;;;;;;;;4967260;28;20312;-83
2023/01/01 14:19:47;;;;;;;3.20;1.70;;;;;;;;;;4970405;28;20234;-84
2023/01/01 14:22:13;;;;;;;3.50;1.70;;;;;;;;;;4935605;28;20233;-84
2023/01/01 14:24:42;;;;;;;4.77;1.60;;;;;;;;;;4952504;28;20234;-84
2023/01/01 14:27:08;;;;;;;4.60;2.20;;;;;;;;;;4940342;28;20226;-83
2023/01/01 14:29:36;;;;;;;4.57;1.77;;;;;;;;;;4952342;28;20301;-85
2023/01/01 14:32:12;;;;;;;5.97;2.10;;;;;;;;;;4953670;28;20227;-85
2023/01/01 14:34:40;;;;;;;3.27;1.73;;;;;;;;;;4949946;28;20218;-82
2023/01/01 14:37:25;;;;;;;3.93;1.70;;;;;;;;;;4961932;28;20210;-85
2023/01/01 14:40:05;;;;;;;3.57;1.70;;;;;;;;;;4936821;28;20234;-83
2023/01/01 14:42:31;;;;;;;3.80;1.57;;;;;;;;;;4952141;28;20227;-82
2023/01/01 14:44:56;;;;;;;4.50;2.10;;;;;;;;;;4944499;28;20322;-83
2023/01/01 14:47:26;;;;;;;5.40;1.90;;;;;;;;;;4934537;28;20233;-83
2023/01/01 14:49:52;;;;;;;3.80;2.00;;;;;;;;;;4936667;28;20218;-83
2023/01/01 14:52:24;;;;;;;4.33;2.40;;;;;;;;;;4938450;28;20664;-83
2023/01/01 14:54:50;;;;;;;4.70;2.47;;;;;;;;;;4907628;28;20321;-83
2023/01/01 14:57:22;;;;;;;5.27;2.57;;;;;;;;;;4912875;28;20277;-83
2023/01/01 14:59:53;;;;;;;4.13;2.53;;;;;;;;;;4925519;28;20351;-84
2023/01/01 15:02:25;;;;;;;3.80;2.10;;;;;;;;;;4914988;28;20256;-84
2023/01/01 15:04:50;;;;;;;4.90;2.20;;;;;;;;;;4948428;28;20234;-84
2023/01/01 15:07:22;;;;;;;3.77;1.90;;;;;;;;;;4936683;28;20218;-82
2023/01/01 15:09:48;;;;;;;8.03;2.13;;;;;;;;;;4930037;28;20232;-83
2023/01/01 15:12:16;;;;;;;5.37;2.40;;;;;;;;;;4935858;28;20534;-84
2023/01/01 15:14:45;;;;;;;3.70;2.13;;;;;;;;;;4898088;28;20227;-85
2023/01/01 15:17:12;;;;;;;5.53;2.10;;;;;;;;;;4933305;28;20253;-84